Alton, New York
Current Conditions -  °F | °C
As of 4:54 AM on Thursday 23 Oct 2014 (Local Time) from KFZY Reporting Station
Broken Clouds Broken Clouds  
Wind Chill: 38°   Ceiling: 9000
Heat Index: 45°   Visibility: 10mi
Dew Point: 36°   Wind: 15mph
Humidity: 71%   Direction: 10°N
Pressure: 30.04"   Gusts: 24mph
Location:  43.21°N, 76.98°W
Report Text: KFZY 230854Z AUTO 01013G21KT 10SM BKN090 07/02 A3004 RMK AO2 SLP174 T00720022 53001
Loading
Personal Weather Stations






























Interactive Weather Map New forecast layout! Learn more

10-Day Weather Forecast

Advertisements
Track Severe Weather on mobile